Englevale, North Dakota
Current Conditions -  °F | °C
As of 2:15 AM on Monday 22 Dec 2014 (Local Time) from KGWR Reporting Station
Overcast Overcast  
Wind Chill: 28°   Ceiling: 100
Heat Index: 36°   Visibility: 0.5mi
Dew Point: 36°   Wind: 10mph
Humidity: 100%   Direction: 110°ESE
Pressure: 29.47"   Gusts: NA
Location:  46.4564°N, 97.909°W
Report Text: KGWR 220815Z AUTO 11009KT 1/2SM OVC001 02/02 A2947 RMK A01 P000
Loading
Personal Weather Stations






























Interactive Weather Map New forecast layout! Learn more

10-Day Weather Forecast

Advertisements
Track Severe Weather on mobile